Latest Weather Observations for Parkes Airport

IDN60801

Issued at 11:35 am EST Tuesday 2 September 2014 (issued every 30 minutes, with the page automatically refreshed every 10 minutes)

About weather observations | Map of weather stations | Latest weather observations for NSW | Other Formats
Station Details ID: 065068 Name: PARKES AIRPORT AWS Lat: -33.13 Lon: 148.24 Height: 323.3 m
Data from the previous 72 hours. | See also: Recent months at Parkes Airport
Date/Time
EST
Temp
°C
App
Temp
°C
Dew
Point
Rel
Hum
%
Delta-T
°C
Wind Press
QNH
hPa
Press
MSL
hPa
Rain
since 9 am
mm
Dir
 
Spd
km/h
Gust
km/h
Spd
kts
Gust
kts
02/11:32am 11.4 3.9 6.1 70 2.5 SW 35 54 19 29 1014.2 - 0.0
02/11:30am 11.7 3.8 6.4 70 2.5 SW 37 54 20 29 1014.2 - 0.0
02/11:00am 10.6 4.8 6.2 74 2.1 WSW 26 35 14 19 1014.6 - 0.0
02/10:30am 11.1 4.1 6.8 75 2.1 SW 33 46 18 25 1014.6 - 0.0
02/10:00am 10.7 4.5 7.8 82 1.4 SW 30 39 16 21 1014.6 - 0.0
02/09:30am 9.5 3.6 7.6 88 0.9 WSW 28 37 15 20 1014.4 - 0.0
02/09:00am 9.7 3.9 7.8 88 0.9 SW 28 35 15 19 1014.3 1014.1 6.8
02/08:30am 9.5 4.9 8.3 92 0.6 SW 22 32 12 17 1013.9 - 6.8
02/08:00am 9.1 5.2 8.6 97 0.2 SW 19 26 10 14 1013.8 - 6.8
02/07:30am 8.7 3.3 8.1 96 0.3 WSW 26 39 14 21 1013.5 - 5.0
02/07:28am 8.8 3.0 8.0 95 0.4 WSW 28 39 15 21 1013.5 - 4.8
02/07:00am 8.8 5.5 8.2 96 0.3 SW 15 19 8 10 1013.1 - 4.2
02/06:30am 8.7 5.4 7.9 95 0.4 SW 15 19 8 10 1012.9 - 4.2
02/06:00am 8.9 4.6 7.8 93 0.5 SW 20 28 11 15 1012.6 1012.4 4.2
02/05:30am 9.4 6.3 8.8 96 0.3 WSW 15 20 8 11 1012.2 - 4.0
02/05:00am 9.6 9.0 9.0 96 0.3 NNE 2 9 1 5 1011.9 - 3.4
02/04:30am 9.5 9.2 8.7 95 0.4 CALM 0 0 0 0 1011.7 - 3.0
02/04:00am 9.6 7.6 8.8 95 0.4 NNE 9 11 5 6 1012.0 - 2.4
02/03:30am 9.7 8.1 8.8 94 0.4 NNE 7 9 4 5 1012.1 - 1.6
02/03:00am 10.1 9.8 8.7 91 0.7 CALM 0 0 0 0 1012.4 1012.2 1.4
02/02:30am 10.4 8.7 8.3 87 1.0 WSW 7 9 4 5 1013.0 - 0.8
02/02:00am 11.0 8.8 8.0 82 1.5 WSW 9 15 5 8 1013.3 - 0.2
02/01:30am 11.5 9.2 7.4 76 2.0 SSW 9 13 5 7 1013.4 - 0.0
02/01:00am 11.5 9.1 7.2 75 2.1 S 9 11 5 6 1013.5 - 0.0
02/12:30am 11.8 9.1 7.3 74 2.2 S 11 13 6 7 1013.8 - 0.0
02/12:00am 11.8 8.3 7.1 73 2.3 S 15 20 8 11 1013.7 1013.5 0.0
 
Date/Time
EST
Temp
°C
App
Temp
°C
Dew
Point
Rel
Hum
%
Delta-T
°C
Wind Press
QNH
hPa
Press
MSL
hPa
Rain
since 9 am
mm
Dir
 
Spd
km/h
Gust
km/h
Spd
kts
Gust
kts
01/11:30pm 12.2 7.6 6.5 68 2.8 SSW 20 28 11 15 1013.7 - 0.0
01/11:00pm 12.8 7.3 5.7 62 3.4 SSW 24 32 13 17 1013.5 - 0.0
01/10:30pm 13.6 6.3 5.3 57 4.0 SW 33 50 18 27 1013.3 - 0.0
01/10:19pm 14.7 6.7 5.5 54 4.4 WSW 37 44 20 24 1013.0 - 0.0
01/10:05pm 13.3 7.3 6.9 65 3.1 W 28 44 15 24 1012.8 - 0.0
01/10:00pm 12.7 9.4 6.3 65 3.1 N 13 15 7 8 1011.6 - 0.0
01/09:30pm 13.1 9.8 6.2 63 3.3 N 13 15 7 8 1011.6 - 0.0
01/09:00pm 13.4 9.7 6.3 62 3.5 N 15 17 8 9 1011.8 1011.6 0.0
01/08:30pm 13.6 9.9 6.5 62 3.5 N 15 20 8 11 1011.9 - 0.0
01/08:00pm 12.2 8.9 6.5 68 2.8 NNE 13 15 7 8 1011.9 - 0.0
01/07:30pm 12.0 8.8 6.7 70 2.6 NNE 13 17 7 9 1012.1 - 0.0
01/07:00pm 13.1 9.9 6.9 66 3.0 N 13 15 7 8 1012.3 - 0.0
01/06:30pm 12.8 10.2 7.7 71 2.5 N 11 13 6 7 1012.2 - 0.0
01/06:00pm 14.0 11.5 8.4 69 2.9 NNE 11 13 6 7 1012.3 1012.1 0.0
01/05:30pm 14.6 12.2 8.8 68 3.0 NNE 11 13 6 7 1012.4 - 0.0
01/05:00pm 15.9 13.6 9.1 64 3.6 NNE 11 13 6 7 1012.3 - 0.0
01/04:30pm 18.3 15.2 7.4 49 5.6 N 13 17 7 9 1012.3 - 0.0
01/04:00pm 18.5 14.1 6.7 46 6.0 N 19 24 10 13 1012.6 - 0.0
01/03:30pm 19.8 15.5 6.9 43 6.6 N 19 28 10 15 1012.8 - 0.0
01/03:00pm 19.8 14.1 6.5 42 6.8 N 26 35 14 19 1013.1 1012.9 0.0
01/02:30pm 20.4 15.5 6.7 41 7.0 NNW 22 32 12 17 1013.2 - 0.0
01/02:00pm 20.2 15.2 6.5 41 7.0 N 22 30 12 16 1013.4 - 0.0
01/01:30pm 19.8 14.2 7.2 44 6.5 N 26 35 14 19 1013.9 - 0.0
01/01:00pm 19.4 14.9 8.4 49 5.8 N 22 30 12 16 1014.5 - 0.0
01/12:30pm 18.2 12.8 6.4 46 5.9 N 24 35 13 19 1015.2 - 0.0
01/12:00pm 18.9 13.3 7.0 46 6.1 NNW 26 37 14 20 1015.9 1015.7 0.0
01/11:30am 18.9 13.9 8.0 49 5.7 N 24 33 13 18 1016.2 - 0.0
01/11:00am 19.0 14.0 8.1 49 5.7 NNW 24 35 13 19 1016.7 - 0.0
01/10:30am 18.2 13.9 7.9 51 5.3 N 20 28 11 15 1017.0 - 0.0
01/10:00am 17.6 13.6 9.2 58 4.4 N 20 28 11 15 1017.3 - 0.0
01/09:30am 16.3 12.3 9.0 62 3.8 N 20 28 11 15 1017.5 - 0.0
01/09:00am 13.9 12.8 10.5 80 1.8 N 7 11 4 6 1017.6 1017.4 0.0
01/08:30am 11.4 9.7 8.4 82 1.5 NNE 7 9 4 5 1017.8 - 0.0
01/08:00am 8.2 7.5 7.0 92 0.6 CALM 0 0 0 0 1017.9 - 0.0
01/07:30am 4.7 1.7 4.0 95 0.3 NE 9 9 5 5 1017.8 - 0.0
01/07:00am 3.3 0.0 2.7 96 0.2 NE 9 9 5 5 1018.0 - 0.0
01/06:30am 2.4 -1.8 1.7 95 0.3 NNE 13 13 7 7 1017.8 - 0.0
01/06:00am 3.0 0.1 2.4 96 0.2 NNE 7 9 4 5 1017.7 1017.5 0.0
01/05:30am 2.7 -0.3 2.1 96 0.2 NE 7 9 4 5 1017.0 - 0.0
01/05:00am 2.2 -1.3 1.5 95 0.3 NE 9 9 5 5 1016.9 - 0.0
01/04:30am 2.6 -0.4 1.7 94 0.4 NE 7 9 4 5 1016.6 - 0.0
01/04:00am 2.8 -1.1 1.3 90 0.6 ENE 11 13 6 7 1016.6 - 0.0
01/03:30am 3.9 0.6 2.7 92 0.5 NE 9 9 5 5 1016.8 - 0.0
01/03:00am 3.6 0.3 2.7 94 0.4 NE 9 9 5 5 1016.9 1016.8 0.0
01/02:30am 3.4 0.5 2.7 95 0.3 N 7 9 4 5 1017.0 - 0.0
01/02:00am 3.1 0.1 2.2 94 0.4 N 7 11 4 6 1017.1 - 0.0
01/01:30am 3.0 -0.4 2.1 94 0.4 N 9 9 5 5 1017.0 - 0.0
01/01:00am 3.8 0.6 3.1 95 0.3 NE 9 11 5 6 1017.2 - 0.0
01/12:30am 2.9 -0.5 1.9 93 0.4 NNE 9 11 5 6 1017.6 - 0.0
01/12:00am 4.5 1.8 3.5 93 0.4 N 7 7 4 4 1017.8 1017.6 0.0
 
Date/Time
EST
Temp
°C
App
Temp
°C
Dew
Point
Rel
Hum
%
Delta-T
°C
Wind Press
QNH
hPa
Press
MSL
hPa
Rain
since 9 am
mm
Dir
 
Spd
km/h
Gust
km/h
Spd
kts
Gust
kts
31/11:30pm 4.6 1.5 3.6 93 0.4 ENE 9 11 5 6 1018.1 - 0.0
31/11:00pm 4.5 1.3 3.3 92 0.5 NE 9 11 5 6 1018.3 - 0.0
31/10:30pm 4.5 1.0 3.5 93 0.4 NNE 11 13 6 7 1018.6 - 0.0
31/10:00pm 4.6 1.1 3.3 91 0.5 N 11 11 6 6 1018.7 - 0.0
31/09:30pm 5.3 2.5 3.2 86 0.9 NE 7 11 4 6 1018.8 - 0.0
31/09:00pm 6.9 3.3 4.9 87 0.9 E 13 15 7 8 1018.8 1019.0 0.0
31/08:30pm 7.3 4.1 5.3 87 0.9 NE 11 13 6 7 1018.7 - 0.0
31/08:00pm 7.6 4.4 4.9 83 1.2 E 11 13 6 7 1018.7 - 0.0
31/07:30pm 8.2 5.1 5.5 83 1.2 E 11 13 6 7 1018.6 - 0.0
31/07:00pm 8.0 5.5 4.9 81 1.4 E 7 11 4 6 1018.3 - 0.0
31/06:30pm 10.6 8.4 6.2 74 2.1 SSE 7 9 4 5 1018.1 - 0.0
31/06:00pm 12.9 10.3 6.0 63 3.3 S 9 11 5 6 1018.0 1018.2 0.0
31/05:30pm 17.0 16.2 6.5 50 5.3 CALM 0 0 0 0 1017.8 - 0.0
31/05:00pm 17.9 16.4 6.7 48 5.7 SSE 4 9 2 5 1017.8 - 0.0
31/04:30pm 19.0 17.3 5.8 42 6.6 ESE 4 9 2 5 1017.6 - 0.0
31/04:00pm 19.1 17.2 6.6 44 6.4 SSW 6 9 3 5 1017.8 - 0.0
31/03:30pm 19.3 18.6 6.8 44 6.4 CALM 0 6 0 3 1017.9 - 0.0
31/03:00pm 18.9 17.1 7.0 46 6.1 W 6 11 3 6 1018.1 1018.3 0.0
31/02:30pm 18.1 15.2 6.3 46 5.9 S 11 22 6 12 1018.4 - 0.0
31/02:00pm 19.1 16.7 6.9 45 6.2 SW 9 15 5 8 1018.8 - 0.0
31/01:30pm 18.4 15.8 6.3 45 6.1 W 9 17 5 9 1019.1 - 0.0
31/01:00pm 19.0 17.2 7.1 46 6.1 WSW 6 17 3 9 1019.6 - 0.0
31/12:30pm 18.2 15.8 7.0 48 5.7 S 9 15 5 8 1020.0 - 0.0
31/12:00pm 18.1 16.5 8.1 52 5.2 W 6 15 3 8 1020.5 1020.8 0.0
31/11:30am 18.0 16.7 9.1 56 4.7 SW 6 15 3 8 1021.1 - 0.0
31/11:00am 17.3 15.4 7.6 53 5.0 WSW 7 11 4 6 1021.6 - 0.0
31/10:30am 17.1 16.0 8.5 57 4.5 NW 4 7 2 4 1021.9 - 0.0
31/10:00am 15.9 15.4 7.9 59 4.1 CALM 0 0 0 0 1022.1 - 0.0
31/09:30am 14.3 12.7 7.8 65 3.3 NNW 6 9 3 5 1022.3 - 0.0
31/09:00am 13.1 12.7 8.2 72 2.5 CALM 0 0 0 0 1022.3 1022.6 0.0
31/08:30am 11.1 9.6 8.5 84 1.3 NE 6 7 3 4 1022.3 - 0.0
31/08:00am 8.1 6.1 7.2 94 0.4 ENE 7 9 4 5 1022.0 - 0.0
31/07:30am 4.7 2.1 4.1 96 0.3 NNE 7 7 4 4 1021.8 - 0.0
31/07:00am 3.9 0.4 3.6 98 0.1 ENE 11 15 6 8 1021.5 - 0.0
31/06:30am 2.7 -0.6 2.3 97 0.2 ENE 9 13 5 7 1021.4 - 0.0
31/06:00am 1.6 -1.6 0.9 95 0.3 NE 7 9 4 5 1021.0 1021.2 0.0
31/05:30am 3.2 -0.5 2.6 96 0.2 E 11 11 6 6 1020.8 - 0.0
31/05:00am 2.9 -0.1 2.2 95 0.3 E 7 11 4 6 1020.8 - 0.0
31/04:30am 3.3 -0.3 2.7 96 0.2 E 11 13 6 7 1020.6 - 0.0
31/04:00am 3.4 1.5 2.7 95 0.3 E 2 7 1 4 1020.6 - 0.0
31/03:30am 3.6 0.4 2.9 95 0.3 E 9 11 5 6 1020.8 - 0.0
31/03:00am 3.7 0.1 2.8 94 0.4 E 11 13 6 7 1021.0 1021.2 0.0
31/02:30am 4.3 0.8 3.6 95 0.3 E 11 13 6 7 1021.2 - 0.0
31/02:00am 3.8 2.3 2.8 93 0.4 CALM 0 0 0 0 1021.7 - 0.0
31/01:30am 4.6 3.2 3.4 92 0.5 CALM 0 0 0 0 1021.9 - 0.0
31/01:00am 5.4 2.4 3.9 90 0.6 SSW 9 11 5 6 1022.1 - 0.0
31/12:30am 5.3 2.7 4.0 91 0.6 SW 7 9 4 5 1022.0 - 0.0
31/12:00am 5.5 4.1 3.8 89 0.7 CALM 0 0 0 0 1022.0 1022.2 0.0
 
Date/Time
EST
Temp
°C
App
Temp
°C
Dew
Point
Rel
Hum
%
Delta-T
°C
Wind Press
QNH
hPa
Press
MSL
hPa
Rain
since 9 am
mm
Dir
 
Spd
km/h
Gust
km/h
Spd
kts
Gust
kts
30/11:30pm 6.7 5.6 5.3 91 0.6 CALM 0 0 0 0 1022.1 - 0.0
30/11:00pm 6.5 5.2 4.2 85 1.0 CALM 0 0 0 0 1022.1 - 0.0
30/10:30pm 8.0 7.1 6.1 88 0.9 CALM 0 0 0 0 1022.2 - 0.0
30/10:00pm 7.6 6.6 5.4 86 1.0 CALM 0 0 0 0 1022.4 - 0.0
30/09:30pm 8.0 6.7 6.0 87 0.9 E 2 7 1 4 1022.5 - 0.0
30/09:00pm 7.3 4.0 4.6 83 1.2 E 11 13 6 7 1022.6 1022.9 0.0
30/08:30pm 10.0 8.9 6.7 80 1.6 E 2 6 1 3 1022.6 - 0.0
30/08:00pm 10.5 8.1 7.0 79 1.7 ESE 9 13 5 7 1022.5 - 0.0
30/07:30pm 12.7 9.7 7.6 71 2.5 SE 13 17 7 9 1022.4 - 0.0
30/07:00pm 13.4 9.8 8.3 71 2.6 SSE 17 20 9 11 1022.1 - 0.0
30/06:30pm 12.9 9.5 7.8 71 2.5 S 15 17 8 9 1021.9 - 0.0
30/06:00pm 14.2 11.0 8.4 68 2.9 S 15 19 8 10 1021.8 1022.0 0.0
30/05:30pm 16.0 12.8 8.5 61 3.9 S 15 20 8 11 1021.8 - 0.0
30/05:00pm 17.4 13.8 8.5 56 4.6 S 17 20 9 11 1021.6 - 0.0
30/04:30pm 17.9 14.6 8.2 53 5.0 S 15 22 8 12 1021.3 - 0.0
30/04:00pm 18.7 16.0 8.9 53 5.2 S 13 19 7 10 1021.4 - 0.0
30/03:30pm 17.8 15.3 8.1 53 5.0 S 11 15 6 8 1021.5 - 0.0
30/03:00pm 19.0 17.3 8.4 50 5.6 SSW 7 15 4 8 1021.6 1021.8 0.0
30/02:30pm 18.8 16.7 8.2 50 5.5 SSW 9 15 5 8 1021.9 - 0.0
30/02:00pm 18.7 16.5 7.8 49 5.7 SE 9 20 5 11 1022.4 - 0.0
30/01:30pm 17.7 15.3 6.9 49 5.5 SSW 9 17 5 9 1022.7 - 0.0
30/01:00pm 17.6 15.2 7.1 50 5.3 E 9 17 5 9 1023.2 - 0.0
30/12:30pm 16.9 14.0 6.4 50 5.2 SSE 11 22 6 12 1023.8 - 0.0
30/12:00pm 16.5 14.3 6.1 50 5.1 ESE 7 17 4 9 1024.4 1024.6 0.0

Other Formats:

Comma delimited format used in spreadsheet applications
http://www.bom.gov.au/fwo/IDN60801/IDN60801.95717.axf

JavaScript Object Notation format (JSON) in row-major order
http://www.bom.gov.au/fwo/IDN60801/IDN60801.95717.json